sensor_id;sensor_type;location;lat;lon;timestamp;temperature;humidity
54954;DHT22;40855;51.072;5.402;2023-02-28T00:00:18;2.00;99.90
54954;DHT22;40855;51.072;5.402;2023-02-28T00:02:44;1.90;99.90
54954;DHT22;40855;51.072;5.402;2023-02-28T00:05:12;1.90;99.90
54954;DHT22;40855;51.072;5.402;2023-02-28T00:07:38;1.80;99.90
54954;DHT22;40855;51.072;5.402;2023-02-28T00:10:06;1.80;99.90
54954;DHT22;40855;51.072;5.402;2023-02-28T00:12:36;1.80;99.90
54954;DHT22;40855;51.072;5.402;2023-02-28T00:15:05;1.80;99.90
54954;DHT22;40855;51.072;5.402;2023-02-28T00:17:31;1.80;99.90
54954;DHT22;40855;51.072;5.402;2023-02-28T00:19:57;1.80;99.90
54954;DHT22;40855;51.072;5.402;2023-02-28T00:22:30;1.80;99.90
54954;DHT22;40855;51.072;5.402;2023-02-28T00:24:56;1.80;99.90
54954;DHT22;40855;51.072;5.402;2023-02-28T00:27:22;1.80;99.90
54954;DHT22;40855;51.072;5.402;2023-02-28T00:29:47;1.80;99.90
54954;DHT22;40855;51.072;5.402;2023-02-28T00:32:13;1.70;99.90
54954;DHT22;40855;51.072;5.402;2023-02-28T00:34:39;1.70;99.90
54954;DHT22;40855;51.072;5.402;2023-02-28T00:37:06;1.70;99.90
54954;DHT22;40855;51.072;5.402;2023-02-28T00:39:37;1.70;99.90
54954;DHT22;40855;51.072;5.402;2023-02-28T00:42:03;1.70;99.90
54954;DHT22;40855;51.072;5.402;2023-02-28T00:44:30;1.70;99.90
54954;DHT22;40855;51.072;5.402;2023-02-28T00:46:56;1.70;99.90
54954;DHT22;40855;51.072;5.402;2023-02-28T00:49:22;1.70;99.90
54954;DHT22;40855;51.072;5.402;2023-02-28T00:51:48;1.70;99.90
54954;DHT22;40855;51.072;5.402;2023-02-28T00:54:14;1.70;99.90
54954;DHT22;40855;51.072;5.402;2023-02-28T00:56:40;1.70;99.90
54954;DHT22;40855;51.072;5.402;2023-02-28T00:59:06;1.70;99.90
54954;DHT22;40855;51.072;5.402;2023-02-28T01:01:32;1.70;99.90
54954;DHT22;40855;51.072;5.402;2023-02-28T01:03:58;1.70;99.90
54954;DHT22;40855;51.072;5.402;2023-02-28T01:06:24;1.70;99.90
54954;DHT22;40855;51.072;5.402;2023-02-28T01:08:49;1.70;99.90
54954;DHT22;40855;51.072;5.402;2023-02-28T01:11:19;1.70;99.90
54954;DHT22;40855;51.072;5.402;2023-02-28T01:13:46;1.70;99.90
54954;DHT22;40855;51.072;5.402;2023-02-28T01:16:12;1.70;99.90
54954;DHT22;40855;51.072;5.402;2023-02-28T01:18:38;1.70;99.90
54954;DHT22;40855;51.072;5.402;2023-02-28T01:21:10;1.70;99.90
54954;DHT22;40855;51.072;5.402;2023-02-28T01:23:35;1.70;99.90
54954;DHT22;40855;51.072;5.402;2023-02-28T01:26:12;1.70;99.90
54954;DHT22;40855;51.072;5.402;2023-02-28T01:28:39;1.70;99.90
54954;DHT22;40855;51.072;5.402;2023-02-28T01:31:05;1.70;99.90
54954;DHT22;40855;51.072;5.402;2023-02-28T01:33:31;1.60;99.90
54954;DHT22;40855;51.072;5.402;2023-02-28T01:36:00;1.60;99.90
54954;DHT22;40855;51.072;5.402;2023-02-28T01:38:27;1.50;99.90
54954;DHT22;40855;51.072;5.402;2023-02-28T01:40:53;1.50;99.90
54954;DHT22;40855;51.072;5.402;2023-02-28T01:45:46;1.40;99.90
54954;DHT22;40855;51.072;5.402;2023-02-28T01:48:12;1.30;99.90
54954;DHT22;40855;51.072;5.402;2023-02-28T01:50:41;1.30;99.90
54954;DHT22;40855;51.072;5.402;2023-02-28T01:53:11;1.30;99.90
54954;DHT22;40855;51.072;5.402;2023-02-28T01:55:40;1.20;99.90
54954;DHT22;40855;51.072;5.402;2023-02-28T01:58:07;1.20;99.90
54954;DHT22;40855;51.072;5.402;2023-02-28T02:00:34;1.20;99.90
54954;DHT22;40855;51.072;5.402;2023-02-28T02:03:12;1.10;99.90
54954;DHT22;40855;51.072;5.402;2023-02-28T02:05:40;1.20;99.90
54954;DHT22;40855;51.072;5.402;2023-02-28T02:08:19;1.10;99.90
54954;DHT22;40855;51.072;5.402;2023-02-28T02:10:45;1.10;99.90
54954;DHT22;40855;51.072;5.402;2023-02-28T02:18:43;1.10;99.90
54954;DHT22;40855;51.072;5.402;2023-02-28T02:26:51;1.10;99.90
54954;DHT22;40855;51.072;5.402;2023-02-28T02:40:36;1.10;99.90
54954;DHT22;40855;51.072;5.402;2023-02-28T02:43:16;1.10;99.90
54954;DHT22;40855;51.072;5.402;2023-02-28T02:45:55;1.10;99.90
54954;DHT22;40855;51.072;5.402;2023-02-28T02:48:26;1.10;99.90
54954;DHT22;40855;51.072;5.402;2023-02-28T02:50:57;1.10;99.90
54954;DHT22;40855;51.072;5.402;2023-02-28T02:53:37;1.10;99.90
54954;DHT22;40855;51.072;5.402;2023-02-28T02:56:04;1.10;99.90
54954;DHT22;40855;51.072;5.402;2023-02-28T02:58:35;1.10;99.90
54954;DHT22;40855;51.072;5.402;2023-02-28T03:01:08;1.10;99.90
54954;DHT22;40855;51.072;5.402;2023-02-28T03:03:36;1.10;99.90
54954;DHT22;40855;51.072;5.402;2023-02-28T03:06:02;1.00;99.90
54954;DHT22;40855;51.072;5.402;2023-02-28T03:08:35;1.00;99.90
54954;DHT22;40855;51.072;5.402;2023-02-28T03:11:04;1.00;99.90
54954;DHT22;40855;51.072;5.402;2023-02-28T03:13:51;0.90;99.90
54954;DHT22;40855;51.072;5.402;2023-02-28T03:25:18;0.80;99.90
54954;DHT22;40855;51.072;5.402;2023-02-28T03:28:57;0.80;99.90
54954;DHT22;40855;51.072;5.402;2023-02-28T03:31:04;0.80;99.90
54954;DHT22;40855;51.072;5.402;2023-02-28T03:33:55;0.80;99.90
54954;DHT22;40855;51.072;5.402;2023-02-28T03:36:37;0.80;99.90
54954;DHT22;40855;51.072;5.402;2023-02-28T03:39:18;0.80;99.90
54954;DHT22;40855;51.072;5.402;2023-02-28T03:42:09;0.70;99.90
54954;DHT22;40855;51.072;5.402;2023-02-28T03:44:43;0.70;99.90
54954;DHT22;40855;51.072;5.402;2023-02-28T03:47:11;0.70;99.90
54954;DHT22;40855;51.072;5.402;2023-02-28T03:49:49;0.70;99.90
54954;DHT22;40855;51.072;5.402;2023-02-28T03:52:20;0.70;99.90
54954;DHT22;40855;51.072;5.402;2023-02-28T03:54:51;0.70;99.90
54954;DHT22;40855;51.072;5.402;2023-02-28T04:00:30;0.70;99.90
54954;DHT22;40855;51.072;5.402;2023-02-28T04:02:58;0.70;99.90
54954;DHT22;40855;51.072;5.402;2023-02-28T04:05:24;0.70;99.90
54954;DHT22;40855;51.072;5.402;2023-02-28T04:07:50;0.60;99.90
54954;DHT22;40855;51.072;5.402;2023-02-28T04:10:16;0.60;99.90
54954;DHT22;40855;51.072;5.402;2023-02-28T04:12:42;0.60;99.90
54954;DHT22;40855;51.072;5.402;2023-02-28T04:15:08;0.50;99.90
54954;DHT22;40855;51.072;5.402;2023-02-28T04:17:34;0.50;99.90
54954;DHT22;40855;51.072;5.402;2023-02-28T04:19:59;0.50;99.90
54954;DHT22;40855;51.072;5.402;2023-02-28T04:22:25;0.40;99.90
54954;DHT22;40855;51.072;5.402;2023-02-28T04:24:53;0.40;99.90
54954;DHT22;40855;51.072;5.402;2023-02-28T04:27:20;0.40;99.90
54954;DHT22;40855;51.072;5.402;2023-02-28T04:29:46;0.30;99.90
54954;DHT22;40855;51.072;5.402;2023-02-28T04:32:12;0.30;99.90
54954;DHT22;40855;51.072;5.402;2023-02-28T04:34:38;0.30;99.90
54954;DHT22;40855;51.072;5.402;2023-02-28T04:37:04;0.30;99.90
54954;DHT22;40855;51.072;5.402;2023-02-28T04:39:30;0.30;99.90
54954;DHT22;40855;51.072;5.402;2023-02-28T04:41:56;0.30;99.90
54954;DHT22;40855;51.072;5.402;2023-02-28T04:44:22;0.30;99.90
54954;DHT22;40855;51.072;5.402;2023-02-28T04:46:48;0.30;99.90
54954;DHT22;40855;51.072;5.402;2023-02-28T04:49:15;0.30;99.90
54954;DHT22;40855;51.072;5.402;2023-02-28T04:51:41;0.20;99.90
54954;DHT22;40855;51.072;5.402;2023-02-28T04:54:08;0.20;99.90
54954;DHT22;40855;51.072;5.402;2023-02-28T04:56:33;0.20;99.90
54954;DHT22;40855;51.072;5.402;2023-02-28T04:58:59;0.20;99.90
54954;DHT22;40855;51.072;5.402;2023-02-28T05:03:54;0.20;99.90
54954;DHT22;40855;51.072;5.402;2023-02-28T05:06:22;0.20;99.90
54954;DHT22;40855;51.072;5.402;2023-02-28T05:08:49;0.20;99.90
54954;DHT22;40855;51.072;5.402;2023-02-28T05:11:44;0.20;99.90
54954;DHT22;40855;51.072;5.402;2023-02-28T05:14:12;0.20;99.90
54954;DHT22;40855;51.072;5.402;2023-02-28T05:16:39;0.20;99.90
54954;DHT22;40855;51.072;5.402;2023-02-28T05:19:04;0.30;99.90
54954;DHT22;40855;51.072;5.402;2023-02-28T05:21:34;0.30;99.90
54954;DHT22;40855;51.072;5.402;2023-02-28T05:24:05;0.30;99.90
54954;DHT22;40855;51.072;5.402;2023-02-28T05:26:38;0.30;99.90
54954;DHT22;40855;51.072;5.402;2023-02-28T05:29:04;0.30;99.90
54954;DHT22;40855;51.072;5.402;2023-02-28T05:31:30;0.30;99.90
54954;DHT22;40855;51.072;5.402;2023-02-28T05:33:56;0.30;99.90
54954;DHT22;40855;51.072;5.402;2023-02-28T05:36:22;0.30;99.90
54954;DHT22;40855;51.072;5.402;2023-02-28T05:38:48;0.40;99.90
54954;DHT22;40855;51.072;5.402;2023-02-28T05:41:15;0.40;99.90
54954;DHT22;40855;51.072;5.402;2023-02-28T05:43:41;0.30;99.90
54954;DHT22;40855;51.072;5.402;2023-02-28T05:46:08;0.30;99.90
54954;DHT22;40855;51.072;5.402;2023-02-28T05:48:35;0.30;99.90
54954;DHT22;40855;51.072;5.402;2023-02-28T05:51:02;0.30;99.90
54954;DHT22;40855;51.072;5.402;2023-02-28T05:53:29;0.20;99.90
54954;DHT22;40855;51.072;5.402;2023-02-28T05:55:54;0.20;99.90
54954;DHT22;40855;51.072;5.402;2023-02-28T05:58:20;0.20;99.90
54954;DHT22;40855;51.072;5.402;2023-02-28T06:00:47;0.10;99.90
54954;DHT22;40855;51.072;5.402;2023-02-28T06:03:13;0.10;99.90
54954;DHT22;40855;51.072;5.402;2023-02-28T06:05:38;0.10;99.90
54954;DHT22;40855;51.072;5.402;2023-02-28T06:08:04;0.10;99.90
54954;DHT22;40855;51.072;5.402;2023-02-28T06:10:35;0.00;99.90
54954;DHT22;40855;51.072;5.402;2023-02-28T06:13:04;0.00;99.90
54954;DHT22;40855;51.072;5.402;2023-02-28T06:15:30;0.00;99.90
54954;DHT22;40855;51.072;5.402;2023-02-28T06:17:57;-0.10;99.90
54954;DHT22;40855;51.072;5.402;2023-02-28T06:20:23;-0.10;99.90
54954;DHT22;40855;51.072;5.402;2023-02-28T06:22:49;-0.10;99.90
54954;DHT22;40855;51.072;5.402;2023-02-28T06:25:20;-0.10;99.90
54954;DHT22;40855;51.072;5.402;2023-02-28T06:27:45;-0.10;99.90
54954;DHT22;40855;51.072;5.402;2023-02-28T06:30:12;-0.20;99.90
54954;DHT22;40855;51.072;5.402;2023-02-28T06:32:37;-0.20;99.90
54954;DHT22;40855;51.072;5.402;2023-02-28T06:35:03;-0.20;99.90
54954;DHT22;40855;51.072;5.402;2023-02-28T06:37:31;-0.20;99.90
54954;DHT22;40855;51.072;5.402;2023-02-28T06:39:57;-0.20;99.90
54954;DHT22;40855;51.072;5.402;2023-02-28T06:42:24;-0.30;99.90
54954;DHT22;40855;51.072;5.402;2023-02-28T06:44:57;-0.30;99.90
54954;DHT22;40855;51.072;5.402;2023-02-28T06:47:24;-0.30;99.90
54954;DHT22;40855;51.072;5.402;2023-02-28T06:49:50;-0.30;99.90
54954;DHT22;40855;51.072;5.402;2023-02-28T06:52:16;-0.30;99.90
54954;DHT22;40855;51.072;5.402;2023-02-28T06:54:41;-0.30;99.90
54954;DHT22;40855;51.072;5.402;2023-02-28T06:57:07;-0.30;99.90
54954;DHT22;40855;51.072;5.402;2023-02-28T06:59:33;-0.40;99.90
54954;DHT22;40855;51.072;5.402;2023-02-28T07:02:00;-0.40;99.90
54954;DHT22;40855;51.072;5.402;2023-02-28T07:04:27;-0.50;99.90
54954;DHT22;40855;51.072;5.402;2023-02-28T07:06:54;-0.40;99.90
54954;DHT22;40855;51.072;5.402;2023-02-28T07:09:21;-0.50;99.90
54954;DHT22;40855;51.072;5.402;2023-02-28T07:11:47;-0.50;99.90
54954;DHT22;40855;51.072;5.402;2023-02-28T07:14:12;-0.50;99.90
54954;DHT22;40855;51.072;5.402;2023-02-28T07:16:38;-0.50;99.90
54954;DHT22;40855;51.072;5.402;2023-02-28T07:19:04;-0.50;99.90
54954;DHT22;40855;51.072;5.402;2023-02-28T07:21:29;-0.50;99.90
54954;DHT22;40855;51.072;5.402;2023-02-28T07:23:55;-0.40;99.90
54954;DHT22;40855;51.072;5.402;2023-02-28T07:26:22;-0.50;99.90
54954;DHT22;40855;51.072;5.402;2023-02-28T07:28:48;-0.50;99.90
54954;DHT22;40855;51.072;5.402;2023-02-28T07:31:14;-0.50;99.90
54954;DHT22;40855;51.072;5.402;2023-02-28T07:33:40;-0.50;99.90
54954;DHT22;40855;51.072;5.402;2023-02-28T07:36:09;-0.50;99.90
54954;DHT22;40855;51.072;5.402;2023-02-28T07:38:36;-0.40;99.90
54954;DHT22;40855;51.072;5.402;2023-02-28T07:41:03;-0.50;99.90
54954;DHT22;40855;51.072;5.402;2023-02-28T07:43:32;-0.40;99.90
54954;DHT22;40855;51.072;5.402;2023-02-28T07:46:07;-0.40;99.90
54954;DHT22;40855;51.072;5.402;2023-02-28T07:48:33;-0.40;99.90
54954;DHT22;40855;51.072;5.402;2023-02-28T07:50:59;-0.30;99.90
54954;DHT22;40855;51.072;5.402;2023-02-28T07:53:26;-0.30;99.90
54954;DHT22;40855;51.072;5.402;2023-02-28T07:55:58;-0.30;99.90
54954;DHT22;40855;51.072;5.402;2023-02-28T07:58:26;-0.20;99.90
54954;DHT22;40855;51.072;5.402;2023-02-28T08:00:52;-0.20;99.90
54954;DHT22;40855;51.072;5.402;2023-02-28T08:03:19;-0.20;99.90
54954;DHT22;40855;51.072;5.402;2023-02-28T08:05:47;-0.10;99.90
54954;DHT22;40855;51.072;5.402;2023-02-28T08:08:13;-0.10;99.90
54954;DHT22;40855;51.072;5.402;2023-02-28T08:10:39;0.00;99.90
54954;DHT22;40855;51.072;5.402;2023-02-28T08:13:04;0.00;99.90
54954;DHT22;40855;51.072;5.402;2023-02-28T08:15:30;0.10;99.90
54954;DHT22;40855;51.072;5.402;2023-02-28T08:17:56;0.10;99.90
54954;DHT22;40855;51.072;5.402;2023-02-28T08:20:23;0.10;99.90
54954;DHT22;40855;51.072;5.402;2023-02-28T08:22:49;0.20;99.90
54954;DHT22;40855;51.072;5.402;2023-02-28T08:25:14;0.30;99.90
54954;DHT22;40855;51.072;5.402;2023-02-28T08:27:40;0.30;99.90
54954;DHT22;40855;51.072;5.402;2023-02-28T08:30:06;0.40;99.90
54954;DHT22;40855;51.072;5.402;2023-02-28T08:32:33;0.40;99.90
54954;DHT22;40855;51.072;5.402;2023-02-28T08:34:59;0.50;99.90
54954;DHT22;40855;51.072;5.402;2023-02-28T08:37:25;0.50;99.90
54954;DHT22;40855;51.072;5.402;2023-02-28T08:39:51;0.60;99.90
54954;DHT22;40855;51.072;5.402;2023-02-28T08:42:17;0.60;99.90
54954;DHT22;40855;51.072;5.402;2023-02-28T08:44:42;0.70;99.90
54954;DHT22;40855;51.072;5.402;2023-02-28T08:47:08;0.70;99.90
54954;DHT22;40855;51.072;5.402;2023-02-28T08:49:34;0.80;99.90
54954;DHT22;40855;51.072;5.402;2023-02-28T08:52:00;0.90;99.90
54954;DHT22;40855;51.072;5.402;2023-02-28T08:54:25;0.90;99.90
54954;DHT22;40855;51.072;5.402;2023-02-28T08:56:51;1.00;99.90
54954;DHT22;40855;51.072;5.402;2023-02-28T08:59:17;1.00;99.90
54954;DHT22;40855;51.072;5.402;2023-02-28T09:01:43;1.10;99.90
54954;DHT22;40855;51.072;5.402;2023-02-28T09:04:09;1.20;99.90
54954;DHT22;40855;51.072;5.402;2023-02-28T09:06:37;1.30;99.90
54954;DHT22;40855;51.072;5.402;2023-02-28T09:09:03;1.40;99.90
54954;DHT22;40855;51.072;5.402;2023-02-28T09:11:31;1.40;99.90
54954;DHT22;40855;51.072;5.402;2023-02-28T09:13:58;1.50;99.90
54954;DHT22;40855;51.072;5.402;2023-02-28T09:16:25;1.60;99.90
54954;DHT22;40855;51.072;5.402;2023-02-28T09:18:51;1.60;99.90
54954;DHT22;40855;51.072;5.402;2023-02-28T09:21:19;1.70;99.90
54954;DHT22;40855;51.072;5.402;2023-02-28T09:23:46;1.70;99.90
54954;DHT22;40855;51.072;5.402;2023-02-28T09:26:21;1.80;99.90
54954;DHT22;40855;51.072;5.402;2023-02-28T09:28:48;1.80;99.90
54954;DHT22;40855;51.072;5.402;2023-02-28T09:31:15;1.90;99.90
54954;DHT22;40855;51.072;5.402;2023-02-28T09:33:42;2.00;99.90
54954;DHT22;40855;51.072;5.402;2023-02-28T09:36:08;2.00;99.90
54954;DHT22;40855;51.072;5.402;2023-02-28T09:38:34;2.00;99.90
54954;DHT22;40855;51.072;5.402;2023-02-28T09:41:04;2.10;99.90
54954;DHT22;40855;51.072;5.402;2023-02-28T09:43:38;2.20;99.90
54954;DHT22;40855;51.072;5.402;2023-02-28T09:46:33;2.30;99.90
54954;DHT22;40855;51.072;5.402;2023-02-28T09:49:05;2.40;99.90
54954;DHT22;40855;51.072;5.402;2023-02-28T09:52:17;2.50;99.30
54954;DHT22;40855;51.072;5.402;2023-02-28T09:54:20;2.60;98.80
54954;DHT22;40855;51.072;5.402;2023-02-28T09:56:54;2.60;97.70
54954;DHT22;40855;51.072;5.402;2023-02-28T10:05:48;2.80;95.70
54954;DHT22;40855;51.072;5.402;2023-02-28T10:08:19;2.90;95.90
54954;DHT22;40855;51.072;5.402;2023-02-28T10:11:12;3.00;95.70
54954;DHT22;40855;51.072;5.402;2023-02-28T10:16:15;3.10;94.50
54954;DHT22;40855;51.072;5.402;2023-02-28T10:19:20;3.20;94.10
54954;DHT22;40855;51.072;5.402;2023-02-28T10:22:11;3.10;92.90
54954;DHT22;40855;51.072;5.402;2023-02-28T10:24:39;3.20;93.00
54954;DHT22;40855;51.072;5.402;2023-02-28T10:27:18;3.20;92.60
54954;DHT22;40855;51.072;5.402;2023-02-28T10:29:48;3.30;92.70
54954;DHT22;40855;51.072;5.402;2023-02-28T10:32:20;3.30;93.10
54954;DHT22;40855;51.072;5.402;2023-02-28T10:37:31;3.40;91.50
54954;DHT22;40855;51.072;5.402;2023-02-28T10:39:57;3.40;91.30
54954;DHT22;40855;51.072;5.402;2023-02-28T10:42:30;3.50;91.00
54954;DHT22;40855;51.072;5.402;2023-02-28T10:45:13;3.60;90.70
54954;DHT22;40855;51.072;5.402;2023-02-28T10:47:56;3.60;88.60
54954;DHT22;40855;51.072;5.402;2023-02-28T10:50:51;3.60;89.60
54954;DHT22;40855;51.072;5.402;2023-02-28T11:00:58;3.80;86.50
54954;DHT22;40855;51.072;5.402;2023-02-28T11:03:34;3.80;87.50
54954;DHT22;40855;51.072;5.402;2023-02-28T11:06:22;3.80;87.00
54954;DHT22;40855;51.072;5.402;2023-02-28T11:08:54;3.90;87.00
54954;DHT22;40855;51.072;5.402;2023-02-28T11:11:23;3.90;86.50
54954;DHT22;40855;51.072;5.402;2023-02-28T11:13:56;4.00;88.20
54954;DHT22;40855;51.072;5.402;2023-02-28T11:16:32;4.10;88.50
54954;DHT22;40855;51.072;5.402;2023-02-28T11:18:58;4.20;86.60
54954;DHT22;40855;51.072;5.402;2023-02-28T11:21:33;4.20;83.80
54954;DHT22;40855;51.072;5.402;2023-02-28T11:24:24;4.20;83.90
54954;DHT22;40855;51.072;5.402;2023-02-28T11:26:51;4.30;84.20
54954;DHT22;40855;51.072;5.402;2023-02-28T11:32:16;4.30;81.40
54954;DHT22;40855;51.072;5.402;2023-02-28T11:34:43;4.30;80.60
54954;DHT22;40855;51.072;5.402;2023-02-28T11:37:16;4.30;80.80
54954;DHT22;40855;51.072;5.402;2023-02-28T11:39:43;4.30;82.10
54954;DHT22;40855;51.072;5.402;2023-02-28T11:53:22;4.60;82.50
54954;DHT22;40855;51.072;5.402;2023-02-28T11:56:09;4.60;81.00
54954;DHT22;40855;51.072;5.402;2023-02-28T11:58:51;4.60;82.80
54954;DHT22;40855;51.072;5.402;2023-02-28T12:06:52;4.70;79.30
54954;DHT22;40855;51.072;5.402;2023-02-28T12:12:34;4.70;79.20
54954;DHT22;40855;51.072;5.402;2023-02-28T12:15:24;4.70;78.80
54954;DHT22;40855;51.072;5.402;2023-02-28T12:18:21;4.70;78.90
54954;DHT22;40855;51.072;5.402;2023-02-28T12:21:04;4.80;79.80
54954;DHT22;40855;51.072;5.402;2023-02-28T12:26:24;4.80;80.10
54954;DHT22;40855;51.072;5.402;2023-02-28T12:29:09;4.90;78.90
54954;DHT22;40855;51.072;5.402;2023-02-28T12:31:38;4.90;78.90
54954;DHT22;40855;51.072;5.402;2023-02-28T12:34:13;4.90;78.80
54954;DHT22;40855;51.072;5.402;2023-02-28T12:36:43;4.90;80.10
54954;DHT22;40855;51.072;5.402;2023-02-28T12:39:20;4.90;78.80
54954;DHT22;40855;51.072;5.402;2023-02-28T12:44:53;4.90;81.50
54954;DHT22;40855;51.072;5.402;2023-02-28T12:47:21;4.80;79.30
54954;DHT22;40855;51.072;5.402;2023-02-28T12:49:53;4.90;80.20
54954;DHT22;40855;51.072;5.402;2023-02-28T12:53:02;4.80;81.30
54954;DHT22;40855;51.072;5.402;2023-02-28T12:55:52;4.80;80.90
54954;DHT22;40855;51.072;5.402;2023-02-28T12:58:36;4.90;78.90
54954;DHT22;40855;51.072;5.402;2023-02-28T13:07:08;5.00;80.00
54954;DHT22;40855;51.072;5.402;2023-02-28T13:09:37;5.00;80.30
54954;DHT22;40855;51.072;5.402;2023-02-28T13:12:13;5.10;81.30
54954;DHT22;40855;51.072;5.402;2023-02-28T13:14:39;5.10;81.80
54954;DHT22;40855;51.072;5.402;2023-02-28T13:22:38;5.20;81.60
54954;DHT22;40855;51.072;5.402;2023-02-28T13:27:55;5.30;79.60
54954;DHT22;40855;51.072;5.402;2023-02-28T13:33:31;5.30;81.90
54954;DHT22;40855;51.072;5.402;2023-02-28T13:36:27;5.30;82.90
54954;DHT22;40855;51.072;5.402;2023-02-28T13:38:58;5.40;81.80
54954;DHT22;40855;51.072;5.402;2023-02-28T13:49:25;5.40;81.60
54954;DHT22;40855;51.072;5.402;2023-02-28T14:02:49;5.40;80.40
54954;DHT22;40855;51.072;5.402;2023-02-28T14:05:21;5.40;81.80
54954;DHT22;40855;51.072;5.402;2023-02-28T14:07:54;5.40;80.00
54954;DHT22;40855;51.072;5.402;2023-02-28T14:12:54;5.40;79.90
54954;DHT22;40855;51.072;5.402;2023-02-28T14:15:43;5.40;80.20
54954;DHT22;40855;51.072;5.402;2023-02-28T14:21:16;5.40;79.30
54954;DHT22;40855;51.072;5.402;2023-02-28T14:31:52;5.30;79.60
54954;DHT22;40855;51.072;5.402;2023-02-28T14:37:20;5.40;80.00
54954;DHT22;40855;51.072;5.402;2023-02-28T14:39:51;5.50;81.30
54954;DHT22;40855;51.072;5.402;2023-02-28T14:42:34;5.50;80.00
54954;DHT22;40855;51.072;5.402;2023-02-28T14:45:02;5.50;79.90
54954;DHT22;40855;51.072;5.402;2023-02-28T14:47:31;5.40;78.00
54954;DHT22;40855;51.072;5.402;2023-02-28T14:49:58;5.40;78.60
54954;DHT22;40855;51.072;5.402;2023-02-28T14:52:27;5.50;77.90
54954;DHT22;40855;51.072;5.402;2023-02-28T14:54:59;5.40;77.50
54954;DHT22;40855;51.072;5.402;2023-02-28T14:57:31;5.50;77.20
54954;DHT22;40855;51.072;5.402;2023-02-28T15:00:09;5.40;78.00
54954;DHT22;40855;51.072;5.402;2023-02-28T15:02:39;5.40;77.40
54954;DHT22;40855;51.072;5.402;2023-02-28T15:07:46;5.40;78.80
54954;DHT22;40855;51.072;5.402;2023-02-28T15:10:22;5.40;78.60
54954;DHT22;40855;51.072;5.402;2023-02-28T15:13:01;5.40;78.00
54954;DHT22;40855;51.072;5.402;2023-02-28T15:15:55;5.40;78.30
54954;DHT22;40855;51.072;5.402;2023-02-28T15:21:07;5.40;79.80
54954;DHT22;40855;51.072;5.402;2023-02-28T15:23:35;5.40;79.40
54954;DHT22;40855;51.072;5.402;2023-02-28T15:26:01;5.40;79.80
54954;DHT22;40855;51.072;5.402;2023-02-28T15:28:28;5.50;80.30
54954;DHT22;40855;51.072;5.402;2023-02-28T15:31:00;5.50;80.70
54954;DHT22;40855;51.072;5.402;2023-02-28T15:33:32;5.50;80.40
54954;DHT22;40855;51.072;5.402;2023-02-28T15:36:25;5.60;80.80
54954;DHT22;40855;51.072;5.402;2023-02-28T15:38:54;5.50;78.60
54954;DHT22;40855;51.072;5.402;2023-02-28T15:41:29;5.50;79.10
54954;DHT22;40855;51.072;5.402;2023-02-28T15:44:16;5.50;78.80
54954;DHT22;40855;51.072;5.402;2023-02-28T15:47:07;5.50;78.10
54954;DHT22;40855;51.072;5.402;2023-02-28T15:49:55;5.50;77.60
54954;DHT22;40855;51.072;5.402;2023-02-28T15:57:34;5.40;77.90
54954;DHT22;40855;51.072;5.402;2023-02-28T16:00:03;5.30;78.60
54954;DHT22;40855;51.072;5.402;2023-02-28T16:02:36;5.30;78.70
54954;DHT22;40855;51.072;5.402;2023-02-28T16:07:28;5.30;78.90
54954;DHT22;40855;51.072;5.402;2023-02-28T16:09:54;5.30;79.10
54954;DHT22;40855;51.072;5.402;2023-02-28T16:12:21;5.30;78.80
54954;DHT22;40855;51.072;5.402;2023-02-28T16:14:51;5.30;79.00
54954;DHT22;40855;51.072;5.402;2023-02-28T16:17:23;5.30;78.30
54954;DHT22;40855;51.072;5.402;2023-02-28T16:19:50;5.30;79.80
54954;DHT22;40855;51.072;5.402;2023-02-28T16:22:16;5.30;80.30
54954;DHT22;40855;51.072;5.402;2023-02-28T16:24:41;5.30;79.70
54954;DHT22;40855;51.072;5.402;2023-02-28T16:27:16;5.30;79.80
54954;DHT22;40855;51.072;5.402;2023-02-28T16:29:42;5.30;79.80
54954;DHT22;40855;51.072;5.402;2023-02-28T16:32:10;5.30;79.80
54954;DHT22;40855;51.072;5.402;2023-02-28T16:34:37;5.20;80.00
54954;DHT22;40855;51.072;5.402;2023-02-28T16:37:05;5.20;80.10
54954;DHT22;40855;51.072;5.402;2023-02-28T16:39:30;5.20;80.30
54954;DHT22;40855;51.072;5.402;2023-02-28T16:41:56;5.20;79.80
54954;DHT22;40855;51.072;5.402;2023-02-28T16:44:35;5.20;80.40
54954;DHT22;40855;51.072;5.402;2023-02-28T16:47:02;5.20;81.00
54954;DHT22;40855;51.072;5.402;2023-02-28T16:49:29;5.20;81.70
54954;DHT22;40855;51.072;5.402;2023-02-28T16:51:54;5.20;81.50
54954;DHT22;40855;51.072;5.402;2023-02-28T16:54:20;5.20;81.70
54954;DHT22;40855;51.072;5.402;2023-02-28T16:56:48;5.20;82.00
54954;DHT22;40855;51.072;5.402;2023-02-28T16:59:17;5.20;81.70
54954;DHT22;40855;51.072;5.402;2023-02-28T17:01:43;5.20;81.60
54954;DHT22;40855;51.072;5.402;2023-02-28T17:04:11;5.20;82.00
54954;DHT22;40855;51.072;5.402;2023-02-28T17:06:37;5.10;82.30
54954;DHT22;40855;51.072;5.402;2023-02-28T17:09:03;5.10;82.60
54954;DHT22;40855;51.072;5.402;2023-02-28T17:11:29;5.10;82.80
54954;DHT22;40855;51.072;5.402;2023-02-28T17:13:55;5.10;83.10
54954;DHT22;40855;51.072;5.402;2023-02-28T17:16:29;5.10;83.50
54954;DHT22;40855;51.072;5.402;2023-02-28T17:19:05;5.20;83.70
54954;DHT22;40855;51.072;5.402;2023-02-28T17:21:31;5.20;83.80
54954;DHT22;40855;51.072;5.402;2023-02-28T17:23:58;5.20;83.90
54954;DHT22;40855;51.072;5.402;2023-02-28T17:26:24;5.20;84.00
54954;DHT22;40855;51.072;5.402;2023-02-28T17:28:51;5.20;84.40
54954;DHT22;40855;51.072;5.402;2023-02-28T17:31:17;5.20;84.90
54954;DHT22;40855;51.072;5.402;2023-02-28T17:33:43;5.20;85.50
54954;DHT22;40855;51.072;5.402;2023-02-28T17:36:29;5.20;86.20
54954;DHT22;40855;51.072;5.402;2023-02-28T17:38:55;5.30;87.00
54954;DHT22;40855;51.072;5.402;2023-02-28T17:41:21;5.30;86.90
54954;DHT22;40855;51.072;5.402;2023-02-28T17:43:47;5.30;86.90
54954;DHT22;40855;51.072;5.402;2023-02-28T17:46:19;5.30;87.10
54954;DHT22;40855;51.072;5.402;2023-02-28T17:48:51;5.30;87.40
54954;DHT22;40855;51.072;5.402;2023-02-28T17:51:19;5.30;88.40
54954;DHT22;40855;51.072;5.402;2023-02-28T17:53:44;5.30;88.00
54954;DHT22;40855;51.072;5.402;2023-02-28T17:56:16;5.30;87.10
54954;DHT22;40855;51.072;5.402;2023-02-28T17:58:43;5.30;86.30
54954;DHT22;40855;51.072;5.402;2023-02-28T18:01:08;5.20;86.00
54954;DHT22;40855;51.072;5.402;2023-02-28T18:03:35;5.20;86.20
54954;DHT22;40855;51.072;5.402;2023-02-28T18:06:02;5.10;86.40
54954;DHT22;40855;51.072;5.402;2023-02-28T18:08:27;5.10;86.50
54954;DHT22;40855;51.072;5.402;2023-02-28T18:10:53;5.00;86.90
54954;DHT22;40855;51.072;5.402;2023-02-28T18:13:19;5.00;87.10
54954;DHT22;40855;51.072;5.402;2023-02-28T18:15:45;4.90;87.40
54954;DHT22;40855;51.072;5.402;2023-02-28T18:18:10;4.80;87.70
54954;DHT22;40855;51.072;5.402;2023-02-28T18:20:36;4.80;88.00
54954;DHT22;40855;51.072;5.402;2023-02-28T18:23:02;4.70;88.30
54954;DHT22;40855;51.072;5.402;2023-02-28T18:25:28;4.70;88.80
54954;DHT22;40855;51.072;5.402;2023-02-28T18:27:54;4.60;89.20
54954;DHT22;40855;51.072;5.402;2023-02-28T18:30:28;4.60;89.60
54954;DHT22;40855;51.072;5.402;2023-02-28T18:33:00;4.60;90.00
54954;DHT22;40855;51.072;5.402;2023-02-28T18:35:27;4.50;90.10